sensor_id;sensor_type;location;lat;lon;timestamp;P1;P2;P0
55304;PMS7003;65692;51.378;19.824;2023-01-09T00:00:19;75.25;53.25;33.00
55304;PMS7003;65692;51.378;19.824;2023-01-09T00:02:46;64.25;49.50;31.00
55304;PMS7003;65692;51.378;19.824;2023-01-09T00:05:13;68.50;50.75;32.75
55304;PMS7003;65692;51.378;19.824;2023-01-09T00:07:40;47.75;44.00;31.00
55304;PMS7003;65692;51.378;19.824;2023-01-09T00:10:06;65.50;52.25;33.75
55304;PMS7003;65692;51.378;19.824;2023-01-09T00:12:33;63.25;49.50;33.75
55304;PMS7003;65692;51.378;19.824;2023-01-09T00:15:00;67.75;49.50;32.25
55304;PMS7003;65692;51.378;19.824;2023-01-09T00:17:26;65.75;53.00;37.00
55304;PMS7003;65692;51.378;19.824;2023-01-09T00:19:53;71.00;54.75;37.25
55304;PMS7003;65692;51.378;19.824;2023-01-09T00:22:19;60.00;47.25;30.75
55304;PMS7003;65692;51.378;19.824;2023-01-09T00:24:46;57.50;47.25;32.50
55304;PMS7003;65692;51.378;19.824;2023-01-09T00:27:12;64.75;50.00;31.75
55304;PMS7003;65692;51.378;19.824;2023-01-09T00:29:39;71.75;55.00;35.50
55304;PMS7003;65692;51.378;19.824;2023-01-09T00:32:11;68.00;50.00;31.75
55304;PMS7003;65692;51.378;19.824;2023-01-09T00:34:37;67.25;49.00;32.50
55304;PMS7003;65692;51.378;19.824;2023-01-09T00:37:04;69.25;51.25;34.75
55304;PMS7003;65692;51.378;19.824;2023-01-09T00:39:37;69.25;51.50;33.50
55304;PMS7003;65692;51.378;19.824;2023-01-09T00:42:03;66.75;48.75;32.00
55304;PMS7003;65692;51.378;19.824;2023-01-09T00:44:32;72.50;53.00;36.25
55304;PMS7003;65692;51.378;19.824;2023-01-09T00:47:04;72.50;53.75;34.00
55304;PMS7003;65692;51.378;19.824;2023-01-09T00:49:33;62.25;49.50;32.75
55304;PMS7003;65692;51.378;19.824;2023-01-09T00:52:02;68.25;52.50;32.75
55304;PMS7003;65692;51.378;19.824;2023-01-09T00:54:29;62.75;46.50;32.00
55304;PMS7003;65692;51.378;19.824;2023-01-09T00:56:56;62.50;50.75;34.00
55304;PMS7003;65692;51.378;19.824;2023-01-09T00:59:22;66.50;48.00;33.25
55304;PMS7003;65692;51.378;19.824;2023-01-09T01:01:49;65.75;52.00;33.50
55304;PMS7003;65692;51.378;19.824;2023-01-09T01:04:15;66.00;50.00;32.75
55304;PMS7003;65692;51.378;19.824;2023-01-09T01:07:00;69.00;51.50;34.50
55304;PMS7003;65692;51.378;19.824;2023-01-09T01:09:45;62.25;47.50;31.50
55304;PMS7003;65692;51.378;19.824;2023-01-09T01:12:12;64.25;48.50;32.00
55304;PMS7003;65692;51.378;19.824;2023-01-09T01:14:38;63.50;50.00;32.25
55304;PMS7003;65692;51.378;19.824;2023-01-09T01:17:05;68.00;50.25;33.25
55304;PMS7003;65692;51.378;19.824;2023-01-09T01:19:32;64.50;48.50;32.25
55304;PMS7003;65692;51.378;19.824;2023-01-09T01:21:59;69.50;50.75;35.50
55304;PMS7003;65692;51.378;19.824;2023-01-09T01:24:25;59.25;45.75;28.00
55304;PMS7003;65692;51.378;19.824;2023-01-09T01:26:52;70.25;53.25;35.75
55304;PMS7003;65692;51.378;19.824;2023-01-09T01:29:18;66.00;50.25;33.75
55304;PMS7003;65692;51.378;19.824;2023-01-09T01:31:44;65.25;52.25;33.25
55304;PMS7003;65692;51.378;19.824;2023-01-09T01:34:11;70.00;50.50;34.00
55304;PMS7003;65692;51.378;19.824;2023-01-09T01:36:37;73.25;53.50;33.25
55304;PMS7003;65692;51.378;19.824;2023-01-09T01:39:04;66.00;48.25;33.50
55304;PMS7003;65692;51.378;19.824;2023-01-09T01:41:30;69.50;49.50;33.50
55304;PMS7003;65692;51.378;19.824;2023-01-09T01:43:58;69.50;53.25;34.50
55304;PMS7003;65692;51.378;19.824;2023-01-09T01:46:25;73.00;53.50;35.50
55304;PMS7003;65692;51.378;19.824;2023-01-09T01:48:54;69.75;53.75;36.00
55304;PMS7003;65692;51.378;19.824;2023-01-09T01:51:22;65.25;50.75;32.50
55304;PMS7003;65692;51.378;19.824;2023-01-09T01:53:52;63.25;49.00;32.00
55304;PMS7003;65692;51.378;19.824;2023-01-09T01:56:22;64.25;50.50;32.00
55304;PMS7003;65692;51.378;19.824;2023-01-09T02:01:16;67.25;48.75;31.75
55304;PMS7003;65692;51.378;19.824;2023-01-09T02:03:43;67.75;51.50;34.25
55304;PMS7003;65692;51.378;19.824;2023-01-09T02:06:11;66.25;51.00;33.00
55304;PMS7003;65692;51.378;19.824;2023-01-09T02:08:37;71.75;53.75;33.00
55304;PMS7003;65692;51.378;19.824;2023-01-09T02:11:04;70.25;55.00;37.75
55304;PMS7003;65692;51.378;19.824;2023-01-09T02:13:31;63.00;52.50;34.00
55304;PMS7003;65692;51.378;19.824;2023-01-09T02:18:43;67.50;49.75;31.75
55304;PMS7003;65692;51.378;19.824;2023-01-09T02:24:09;68.25;50.50;35.00
55304;PMS7003;65692;51.378;19.824;2023-01-09T02:31:39;68.25;51.75;33.25
55304;PMS7003;65692;51.378;19.824;2023-01-09T02:39:25;62.25;48.25;31.25
55304;PMS7003;65692;51.378;19.824;2023-01-09T02:41:54;72.00;55.00;34.25
55304;PMS7003;65692;51.378;19.824;2023-01-09T02:44:24;64.00;50.00;33.50
55304;PMS7003;65692;51.378;19.824;2023-01-09T02:47:32;66.25;53.25;34.75
55304;PMS7003;65692;51.378;19.824;2023-01-09T02:50:00;73.50;52.25;36.00
55304;PMS7003;65692;51.378;19.824;2023-01-09T02:55:10;61.75;50.75;35.50
55304;PMS7003;65692;51.378;19.824;2023-01-09T03:02:46;65.50;52.00;35.00
55304;PMS7003;65692;51.378;19.824;2023-01-09T03:05:28;70.25;53.50;36.75
55304;PMS7003;65692;51.378;19.824;2023-01-09T03:08:03;65.50;48.25;33.50
55304;PMS7003;65692;51.378;19.824;2023-01-09T03:10:55;70.25;50.75;33.00
55304;PMS7003;65692;51.378;19.824;2023-01-09T03:13:19;66.00;52.25;36.50
55304;PMS7003;65692;51.378;19.824;2023-01-09T03:15:47;66.75;54.50;36.00
55304;PMS7003;65692;51.378;19.824;2023-01-09T03:18:16;71.75;52.75;36.50
55304;PMS7003;65692;51.378;19.824;2023-01-09T03:20:44;70.50;53.00;36.00
55304;PMS7003;65692;51.378;19.824;2023-01-09T03:23:11;74.00;54.50;36.50
55304;PMS7003;65692;51.378;19.824;2023-01-09T03:25:38;66.75;50.00;33.00
55304;PMS7003;65692;51.378;19.824;2023-01-09T03:28:05;61.50;49.00;33.00
55304;PMS7003;65692;51.378;19.824;2023-01-09T03:30:33;65.00;49.25;33.25
55304;PMS7003;65692;51.378;19.824;2023-01-09T03:33:00;63.50;52.00;36.00
55304;PMS7003;65692;51.378;19.824;2023-01-09T03:35:26;66.25;51.75;33.00
55304;PMS7003;65692;51.378;19.824;2023-01-09T03:37:53;69.00;49.25;31.25
55304;PMS7003;65692;51.378;19.824;2023-01-09T03:40:20;68.75;53.75;35.00
55304;PMS7003;65692;51.378;19.824;2023-01-09T03:42:46;64.75;50.50;33.50
55304;PMS7003;65692;51.378;19.824;2023-01-09T03:45:13;68.75;52.50;37.25
55304;PMS7003;65692;51.378;19.824;2023-01-09T03:47:39;68.00;53.75;32.75
55304;PMS7003;65692;51.378;19.824;2023-01-09T03:50:06;67.75;48.25;33.00
55304;PMS7003;65692;51.378;19.824;2023-01-09T03:52:32;69.75;52.75;36.25
55304;PMS7003;65692;51.378;19.824;2023-01-09T03:55:01;64.50;50.75;33.25
55304;PMS7003;65692;51.378;19.824;2023-01-09T03:57:27;65.00;49.25;32.25
55304;PMS7003;65692;51.378;19.824;2023-01-09T03:59:54;62.00;49.50;32.75
55304;PMS7003;65692;51.378;19.824;2023-01-09T04:02:20;62.25;48.25;33.25
55304;PMS7003;65692;51.378;19.824;2023-01-09T04:04:46;64.50;47.25;30.25
55304;PMS7003;65692;51.378;19.824;2023-01-09T04:07:13;59.25;45.50;32.00
55304;PMS7003;65692;51.378;19.824;2023-01-09T04:09:39;71.75;54.75;35.25
55304;PMS7003;65692;51.378;19.824;2023-01-09T04:12:06;59.25;48.75;33.00
55304;PMS7003;65692;51.378;19.824;2023-01-09T04:14:32;65.00;48.00;32.00
55304;PMS7003;65692;51.378;19.824;2023-01-09T04:16:58;65.00;48.00;32.25
55304;PMS7003;65692;51.378;19.824;2023-01-09T04:19:25;60.25;47.00;30.75
55304;PMS7003;65692;51.378;19.824;2023-01-09T04:21:51;58.00;45.25;32.00
55304;PMS7003;65692;51.378;19.824;2023-01-09T04:24:17;62.75;50.50;33.25
55304;PMS7003;65692;51.378;19.824;2023-01-09T04:26:44;68.50;48.50;32.00
55304;PMS7003;65692;51.378;19.824;2023-01-09T04:29:10;59.00;41.00;25.25
55304;PMS7003;65692;51.378;19.824;2023-01-09T04:31:37;60.50;49.00;33.25
55304;PMS7003;65692;51.378;19.824;2023-01-09T04:34:03;67.00;49.25;32.00
55304;PMS7003;65692;51.378;19.824;2023-01-09T04:36:29;56.75;45.50;30.75
55304;PMS7003;65692;51.378;19.824;2023-01-09T04:38:56;64.00;49.75;32.75
55304;PMS7003;65692;51.378;19.824;2023-01-09T04:41:22;61.25;49.50;32.00
55304;PMS7003;65692;51.378;19.824;2023-01-09T04:44:08;70.00;51.75;32.50
55304;PMS7003;65692;51.378;19.824;2023-01-09T04:46:34;58.50;45.25;32.25
55304;PMS7003;65692;51.378;19.824;2023-01-09T04:49:00;68.50;53.75;34.75
55304;PMS7003;65692;51.378;19.824;2023-01-09T04:51:27;42.75;21.00;4.00
55304;PMS7003;65692;51.378;19.824;2023-01-09T04:53:53;58.75;47.50;30.50
55304;PMS7003;65692;51.378;19.824;2023-01-09T04:56:20;56.25;46.50;30.75
55304;PMS7003;65692;51.378;19.824;2023-01-09T04:58:46;58.00;50.00;32.50
55304;PMS7003;65692;51.378;19.824;2023-01-09T05:01:12;62.50;49.25;34.25
55304;PMS7003;65692;51.378;19.824;2023-01-09T05:03:39;62.00;47.00;31.75
55304;PMS7003;65692;51.378;19.824;2023-01-09T05:06:05;69.75;49.25;33.50
55304;PMS7003;65692;51.378;19.824;2023-01-09T05:08:32;68.50;51.25;34.00
55304;PMS7003;65692;51.378;19.824;2023-01-09T05:10:58;60.00;46.25;31.50
55304;PMS7003;65692;51.378;19.824;2023-01-09T05:13:25;71.00;54.50;36.25
55304;PMS7003;65692;51.378;19.824;2023-01-09T05:15:52;73.25;55.75;38.00
55304;PMS7003;65692;51.378;19.824;2023-01-09T05:18:18;69.50;50.75;36.75
55304;PMS7003;65692;51.378;19.824;2023-01-09T05:20:45;75.75;56.00;37.75
55304;PMS7003;65692;51.378;19.824;2023-01-09T05:23:11;71.25;53.00;34.75
55304;PMS7003;65692;51.378;19.824;2023-01-09T05:25:38;67.50;51.25;33.25
55304;PMS7003;65692;51.378;19.824;2023-01-09T05:28:04;69.50;53.50;35.50
55304;PMS7003;65692;51.378;19.824;2023-01-09T05:30:30;71.50;53.00;34.25
55304;PMS7003;65692;51.378;19.824;2023-01-09T05:32:57;74.00;54.75;35.00
55304;PMS7003;65692;51.378;19.824;2023-01-09T05:35:23;59.25;49.75;32.50
55304;PMS7003;65692;51.378;19.824;2023-01-09T05:37:50;64.00;51.00;33.75
55304;PMS7003;65692;51.378;19.824;2023-01-09T05:40:16;72.75;55.00;35.00
55304;PMS7003;65692;51.378;19.824;2023-01-09T05:42:43;75.75;53.50;34.75
55304;PMS7003;65692;51.378;19.824;2023-01-09T05:45:09;69.25;55.50;36.50
55304;PMS7003;65692;51.378;19.824;2023-01-09T05:47:36;72.25;56.00;39.00
55304;PMS7003;65692;51.378;19.824;2023-01-09T05:50:03;74.25;56.25;37.00
55304;PMS7003;65692;51.378;19.824;2023-01-09T05:52:30;72.25;54.50;38.25
55304;PMS7003;65692;51.378;19.824;2023-01-09T05:54:59;90.25;70.25;46.75
55304;PMS7003;65692;51.378;19.824;2023-01-09T05:57:25;92.50;69.75;45.50
55304;PMS7003;65692;51.378;19.824;2023-01-09T05:59:54;75.50;58.25;37.50
55304;PMS7003;65692;51.378;19.824;2023-01-09T06:02:20;89.75;66.00;42.00
55304;PMS7003;65692;51.378;19.824;2023-01-09T06:04:47;82.50;62.50;41.00
55304;PMS7003;65692;51.378;19.824;2023-01-09T06:07:13;86.00;67.50;44.00
55304;PMS7003;65692;51.378;19.824;2023-01-09T06:09:46;84.75;63.75;40.75
55304;PMS7003;65692;51.378;19.824;2023-01-09T06:12:12;84.50;62.50;39.25
55304;PMS7003;65692;51.378;19.824;2023-01-09T06:14:38;83.25;59.25;38.50
55304;PMS7003;65692;51.378;19.824;2023-01-09T06:17:05;75.75;58.00;41.25
55304;PMS7003;65692;51.378;19.824;2023-01-09T06:19:31;72.00;58.25;39.75
55304;PMS7003;65692;51.378;19.824;2023-01-09T06:21:58;76.25;57.50;38.00
55304;PMS7003;65692;51.378;19.824;2023-01-09T06:24:24;71.75;56.00;36.75
55304;PMS7003;65692;51.378;19.824;2023-01-09T06:26:51;72.00;56.50;37.00
55304;PMS7003;65692;51.378;19.824;2023-01-09T06:29:17;78.25;58.75;39.25
55304;PMS7003;65692;51.378;19.824;2023-01-09T06:31:44;72.25;55.50;35.00
55304;PMS7003;65692;51.378;19.824;2023-01-09T06:34:10;69.25;53.50;34.00
55304;PMS7003;65692;51.378;19.824;2023-01-09T06:36:38;80.50;50.50;36.75
55304;PMS7003;65692;51.378;19.824;2023-01-09T06:39:05;73.75;56.75;37.00
55304;PMS7003;65692;51.378;19.824;2023-01-09T06:41:31;66.00;49.00;33.25
55304;PMS7003;65692;51.378;19.824;2023-01-09T06:43:58;72.50;54.25;37.00
55304;PMS7003;65692;51.378;19.824;2023-01-09T06:46:24;77.00;59.75;38.75
55304;PMS7003;65692;51.378;19.824;2023-01-09T06:48:50;69.75;50.00;33.00
55304;PMS7003;65692;51.378;19.824;2023-01-09T06:51:17;72.50;55.25;38.00
55304;PMS7003;65692;51.378;19.824;2023-01-09T06:53:43;82.75;60.25;39.50
55304;PMS7003;65692;51.378;19.824;2023-01-09T06:56:12;71.50;54.50;38.25
55304;PMS7003;65692;51.378;19.824;2023-01-09T06:58:39;77.00;58.00;37.25
55304;PMS7003;65692;51.378;19.824;2023-01-09T07:01:05;69.75;56.25;37.00
55304;PMS7003;65692;51.378;19.824;2023-01-09T07:03:32;65.75;53.25;35.00
55304;PMS7003;65692;51.378;19.824;2023-01-09T07:05:59;69.75;53.50;36.00
55304;PMS7003;65692;51.378;19.824;2023-01-09T07:08:25;72.25;52.75;37.25
55304;PMS7003;65692;51.378;19.824;2023-01-09T07:10:51;68.75;55.25;38.75
55304;PMS7003;65692;51.378;19.824;2023-01-09T07:13:20;75.00;59.25;39.25
55304;PMS7003;65692;51.378;19.824;2023-01-09T07:15:47;79.75;60.75;40.25
55304;PMS7003;65692;51.378;19.824;2023-01-09T07:18:15;72.00;57.75;39.00
55304;PMS7003;65692;51.378;19.824;2023-01-09T07:20:41;67.00;49.75;31.00
55304;PMS7003;65692;51.378;19.824;2023-01-09T07:23:10;73.75;57.75;39.00
55304;PMS7003;65692;51.378;19.824;2023-01-09T07:25:36;79.50;61.25;37.75
55304;PMS7003;65692;51.378;19.824;2023-01-09T07:28:03;81.00;61.75;40.00
55304;PMS7003;65692;51.378;19.824;2023-01-09T07:30:29;71.00;57.00;37.25
55304;PMS7003;65692;51.378;19.824;2023-01-09T07:32:56;72.25;57.75;39.00
55304;PMS7003;65692;51.378;19.824;2023-01-09T07:35:22;74.75;54.00;37.00
55304;PMS7003;65692;51.378;19.824;2023-01-09T07:37:48;73.75;53.25;35.50
55304;PMS7003;65692;51.378;19.824;2023-01-09T07:40:15;79.75;56.25;37.50
55304;PMS7003;65692;51.378;19.824;2023-01-09T07:42:42;73.00;56.75;37.00
55304;PMS7003;65692;51.378;19.824;2023-01-09T07:45:08;73.50;55.50;36.50
55304;PMS7003;65692;51.378;19.824;2023-01-09T07:47:35;75.50;55.75;37.25
55304;PMS7003;65692;51.378;19.824;2023-01-09T07:50:03;72.00;54.75;37.50
55304;PMS7003;65692;51.378;19.824;2023-01-09T07:52:32;76.50;57.00;37.50
55304;PMS7003;65692;51.378;19.824;2023-01-09T07:54:58;74.00;54.00;36.25
55304;PMS7003;65692;51.378;19.824;2023-01-09T07:57:25;71.25;55.50;35.00
55304;PMS7003;65692;51.378;19.824;2023-01-09T07:59:51;67.25;52.50;33.00
55304;PMS7003;65692;51.378;19.824;2023-01-09T08:02:18;63.50;52.25;36.75
55304;PMS7003;65692;51.378;19.824;2023-01-09T08:04:47;67.25;51.75;34.25
55304;PMS7003;65692;51.378;19.824;2023-01-09T08:07:13;69.00;54.00;37.00
55304;PMS7003;65692;51.378;19.824;2023-01-09T08:09:40;74.25;53.75;32.00
55304;PMS7003;65692;51.378;19.824;2023-01-09T08:12:06;74.00;56.25;37.25
55304;PMS7003;65692;51.378;19.824;2023-01-09T08:14:32;77.50;59.00;38.25
55304;PMS7003;65692;51.378;19.824;2023-01-09T08:17:01;75.50;55.25;37.25
55304;PMS7003;65692;51.378;19.824;2023-01-09T08:19:28;81.50;59.00;37.00
55304;PMS7003;65692;51.378;19.824;2023-01-09T08:21:56;75.75;57.50;38.00
55304;PMS7003;65692;51.378;19.824;2023-01-09T08:24:23;53.25;38.00;18.75
55304;PMS7003;65692;51.378;19.824;2023-01-09T08:26:49;75.75;54.25;36.75
55304;PMS7003;65692;51.378;19.824;2023-01-09T08:29:15;63.00;47.00;31.50
55304;PMS7003;65692;51.378;19.824;2023-01-09T08:31:42;70.50;54.25;34.00
55304;PMS7003;65692;51.378;19.824;2023-01-09T08:34:08;64.25;50.75;36.00
55304;PMS7003;65692;51.378;19.824;2023-01-09T08:36:35;66.25;49.50;33.75
55304;PMS7003;65692;51.378;19.824;2023-01-09T08:39:01;64.75;47.75;33.00
55304;PMS7003;65692;51.378;19.824;2023-01-09T08:41:31;62.50;48.50;32.50
55304;PMS7003;65692;51.378;19.824;2023-01-09T08:44:16;62.50;48.00;33.00
55304;PMS7003;65692;51.378;19.824;2023-01-09T08:47:01;62.75;48.75;33.00
55304;PMS7003;65692;51.378;19.824;2023-01-09T08:49:31;65.50;50.75;33.75
55304;PMS7003;65692;51.378;19.824;2023-01-09T08:51:57;61.50;46.50;30.00
55304;PMS7003;65692;51.378;19.824;2023-01-09T08:54:24;64.50;49.25;33.25
55304;PMS7003;65692;51.378;19.824;2023-01-09T08:56:50;64.75;47.25;30.75
55304;PMS7003;65692;51.378;19.824;2023-01-09T08:59:19;60.50;43.25;27.00
55304;PMS7003;65692;51.378;19.824;2023-01-09T09:01:45;64.00;45.75;31.75
55304;PMS7003;65692;51.378;19.824;2023-01-09T09:04:12;59.50;47.25;30.75
55304;PMS7003;65692;51.378;19.824;2023-01-09T09:06:38;59.75;47.50;33.50
55304;PMS7003;65692;51.378;19.824;2023-01-09T09:09:05;67.50;49.50;34.00
55304;PMS7003;65692;51.378;19.824;2023-01-09T09:11:32;78.25;59.00;38.50
55304;PMS7003;65692;51.378;19.824;2023-01-09T09:13:58;68.00;52.00;34.00
55304;PMS7003;65692;51.378;19.824;2023-01-09T09:16:25;62.00;47.00;33.00
55304;PMS7003;65692;51.378;19.824;2023-01-09T09:18:52;69.75;51.25;35.25
55304;PMS7003;65692;51.378;19.824;2023-01-09T09:21:18;65.50;51.50;35.00
55304;PMS7003;65692;51.378;19.824;2023-01-09T09:23:45;72.25;54.75;35.00
55304;PMS7003;65692;51.378;19.824;2023-01-09T09:26:12;75.75;57.50;38.50
55304;PMS7003;65692;51.378;19.824;2023-01-09T09:28:38;73.25;55.25;35.75
55304;PMS7003;65692;51.378;19.824;2023-01-09T09:31:05;66.50;51.00;35.25
55304;PMS7003;65692;51.378;19.824;2023-01-09T09:33:31;65.25;50.75;33.25
55304;PMS7003;65692;51.378;19.824;2023-01-09T09:35:58;68.00;52.75;34.25
55304;PMS7003;65692;51.378;19.824;2023-01-09T09:38:25;64.25;49.00;34.00
55304;PMS7003;65692;51.378;19.824;2023-01-09T09:40:57;65.00;49.25;33.25
55304;PMS7003;65692;51.378;19.824;2023-01-09T09:43:34;59.00;46.75;32.25
55304;PMS7003;65692;51.378;19.824;2023-01-09T09:46:37;59.50;44.75;29.25
55304;PMS7003;65692;51.378;19.824;2023-01-09T09:49:14;61.50;46.25;33.25
55304;PMS7003;65692;51.378;19.824;2023-01-09T09:54:26;64.00;51.00;36.00
55304;PMS7003;65692;51.378;19.824;2023-01-09T09:57:03;60.25;48.75;34.00
55304;PMS7003;65692;51.378;19.824;2023-01-09T09:59:34;58.00;45.00;31.25
55304;PMS7003;65692;51.378;19.824;2023-01-09T10:04:29;64.50;52.25;35.00
55304;PMS7003;65692;51.378;19.824;2023-01-09T10:07:04;56.50;44.25;30.75
55304;PMS7003;65692;51.378;19.824;2023-01-09T10:12:51;55.00;45.50;30.75
55304;PMS7003;65692;51.378;19.824;2023-01-09T10:14:52;60.75;47.75;29.50
55304;PMS7003;65692;51.378;19.824;2023-01-09T10:22:34;58.00;43.00;30.50
55304;PMS7003;65692;51.378;19.824;2023-01-09T10:35:49;49.25;41.75;29.00
55304;PMS7003;65692;51.378;19.824;2023-01-09T10:38:24;48.25;41.00;28.25
55304;PMS7003;65692;51.378;19.824;2023-01-09T10:41:02;59.00;45.00;29.75
55304;PMS7003;65692;51.378;19.824;2023-01-09T10:43:35;48.00;40.00;26.00
55304;PMS7003;65692;51.378;19.824;2023-01-09T10:46:04;59.00;45.25;30.00
55304;PMS7003;65692;51.378;19.824;2023-01-09T10:48:36;38.00;32.00;16.00
55304;PMS7003;65692;51.378;19.824;2023-01-09T10:51:04;55.00;42.50;29.75
55304;PMS7003;65692;51.378;19.824;2023-01-09T10:53:40;59.00;46.00;30.25
55304;PMS7003;65692;51.378;19.824;2023-01-09T10:58:41;50.25;43.00;29.25
55304;PMS7003;65692;51.378;19.824;2023-01-09T11:01:07;53.67;41.00;28.67
55304;PMS7003;65692;51.378;19.824;2023-01-09T11:03:34;47.25;41.00;29.25
55304;PMS7003;65692;51.378;19.824;2023-01-09T11:06:02;55.50;46.75;29.75
55304;PMS7003;65692;51.378;19.824;2023-01-09T11:08:39;60.25;45.00;30.25
55304;PMS7003;65692;51.378;19.824;2023-01-09T11:11:08;52.67;41.00;28.33
55304;PMS7003;65692;51.378;19.824;2023-01-09T11:13:35;62.50;48.75;32.00
55304;PMS7003;65692;51.378;19.824;2023-01-09T11:18:33;54.50;42.00;29.00
55304;PMS7003;65692;51.378;19.824;2023-01-09T11:23:47;57.25;44.75;29.00
55304;PMS7003;65692;51.378;19.824;2023-01-09T11:26:25;56.75;42.50;29.75
55304;PMS7003;65692;51.378;19.824;2023-01-09T11:31:37;48.50;38.75;27.00
55304;PMS7003;65692;51.378;19.824;2023-01-09T11:34:05;58.25;45.75;29.25
55304;PMS7003;65692;51.378;19.824;2023-01-09T11:36:32;48.00;41.33;27.67
55304;PMS7003;65692;51.378;19.824;2023-01-09T11:38:59;45.50;39.75;29.00
55304;PMS7003;65692;51.378;19.824;2023-01-09T11:41:29;57.25;44.75;31.75
55304;PMS7003;65692;51.378;19.824;2023-01-09T11:43:57;45.25;38.25;26.00
55304;PMS7003;65692;51.378;19.824;2023-01-09T11:48:57;45.25;38.00;26.00
55304;PMS7003;65692;51.378;19.824;2023-01-09T11:56:32;53.00;39.00;26.33
55304;PMS7003;65692;51.378;19.824;2023-01-09T11:58:58;44.75;40.50;29.00
55304;PMS7003;65692;51.378;19.824;2023-01-09T12:01:50;61.25;44.75;29.25
55304;PMS7003;65692;51.378;19.824;2023-01-09T12:04:27;54.25;44.50;29.25
55304;PMS7003;65692;51.378;19.824;2023-01-09T12:07:08;57.75;45.00;30.25
55304;PMS7003;65692;51.378;19.824;2023-01-09T12:28:27;53.75;42.50;29.75
55304;PMS7003;65692;51.378;19.824;2023-01-09T12:38:53;52.67;41.67;29.67
55304;PMS7003;65692;51.378;19.824;2023-01-09T12:46:20;57.75;43.00;29.75
55304;PMS7003;65692;51.378;19.824;2023-01-09T12:51:40;56.00;43.00;28.50
55304;PMS7003;65692;51.378;19.824;2023-01-09T12:56:40;47.67;39.67;26.00
55304;PMS7003;65692;51.378;19.824;2023-01-09T13:01:39;50.00;41.33;28.33
55304;PMS7003;65692;51.378;19.824;2023-01-09T13:06:50;50.33;42.67;29.00
55304;PMS7003;65692;51.378;19.824;2023-01-09T13:09:25;46.33;39.67;25.00
55304;PMS7003;65692;51.378;19.824;2023-01-09T13:14:28;46.67;41.00;27.00
55304;PMS7003;65692;51.378;19.824;2023-01-09T13:16:56;46.33;38.67;26.33
55304;PMS7003;65692;51.378;19.824;2023-01-09T13:19:32;49.00;39.00;27.33
55304;PMS7003;65692;51.378;19.824;2023-01-09T13:22:02;53.33;40.33;28.67
55304;PMS7003;65692;51.378;19.824;2023-01-09T13:27:08;57.33;43.00;29.00
55304;PMS7003;65692;51.378;19.824;2023-01-09T13:29:36;56.75;42.25;30.25
55304;PMS7003;65692;51.378;19.824;2023-01-09T13:32:12;34.75;25.50;7.25
55304;PMS7003;65692;51.378;19.824;2023-01-09T13:34:45;48.00;40.67;26.67
55304;PMS7003;65692;51.378;19.824;2023-01-09T13:37:19;44.67;39.00;28.67
55304;PMS7003;65692;51.378;19.824;2023-01-09T13:39:46;59.00;45.25;29.50
55304;PMS7003;65692;51.378;19.824;2023-01-09T13:42:20;66.50;53.75;35.75
55304;PMS7003;65692;51.378;19.824;2023-01-09T13:47:43;56.25;44.75;30.00
55304;PMS7003;65692;51.378;19.824;2023-01-09T13:52:37;73.75;52.75;34.00
55304;PMS7003;65692;51.378;19.824;2023-01-09T13:57:43;69.75;56.25;38.00
55304;PMS7003;65692;51.378;19.824;2023-01-09T14:05:10;69.00;52.00;33.75
55304;PMS7003;65692;51.378;19.824;2023-01-09T14:07:40;56.75;46.50;32.50
55304;PMS7003;65692;51.378;19.824;2023-01-09T14:12:55;44.33;38.33;27.00
55304;PMS7003;65692;51.378;19.824;2023-01-09T14:15:35;58.75;47.00;31.50
55304;PMS7003;65692;51.378;19.824;2023-01-09T14:18:03;66.25;50.25;33.75
55304;PMS7003;65692;51.378;19.824;2023-01-09T14:23:00;70.50;52.00;35.00
55304;PMS7003;65692;51.378;19.824;2023-01-09T14:25:47;55.00;44.75;28.50
55304;PMS7003;65692;51.378;19.824;2023-01-09T14:40:55;75.75;57.25;37.25
55304;PMS7003;65692;51.378;19.824;2023-01-09T14:46:10;56.25;47.00;32.00
55304;PMS7003;65692;51.378;19.824;2023-01-09T14:48:39;65.00;51.25;34.50
55304;PMS7003;65692;51.378;19.824;2023-01-09T14:51:09;52.00;40.00;28.00
55304;PMS7003;65692;51.378;19.824;2023-01-09T14:53:40;62.25;47.50;32.50
55304;PMS7003;65692;51.378;19.824;2023-01-09T14:56:16;67.00;49.75;34.25
55304;PMS7003;65692;51.378;19.824;2023-01-09T14:59:00;78.50;62.00;40.75
55304;PMS7003;65692;51.378;19.824;2023-01-09T15:01:28;59.75;44.25;27.50
55304;PMS7003;65692;51.378;19.824;2023-01-09T15:03:58;73.00;52.75;34.25
55304;PMS7003;65692;51.378;19.824;2023-01-09T15:06:28;72.00;56.50;37.25
55304;PMS7003;65692;51.378;19.824;2023-01-09T15:11:47;79.00;58.00;38.75
55304;PMS7003;65692;51.378;19.824;2023-01-09T15:14:24;76.25;55.50;36.00
55304;PMS7003;65692;51.378;19.824;2023-01-09T15:16:54;73.25;53.25;35.00
55304;PMS7003;65692;51.378;19.824;2023-01-09T15:19:20;88.00;63.25;40.50
55304;PMS7003;65692;51.378;19.824;2023-01-09T15:21:56;84.75;62.50;40.00
55304;PMS7003;65692;51.378;19.824;2023-01-09T15:24:25;87.00;63.75;40.75
55304;PMS7003;65692;51.378;19.824;2023-01-09T15:26:56;76.50;58.25;39.50
55304;PMS7003;65692;51.378;19.824;2023-01-09T15:29:23;68.50;51.75;35.75
55304;PMS7003;65692;51.378;19.824;2023-01-09T15:31:52;60.50;48.25;33.25
55304;PMS7003;65692;51.378;19.824;2023-01-09T15:34:20;69.25;51.75;33.75
55304;PMS7003;65692;51.378;19.824;2023-01-09T15:36:47;44.67;34.33;25.00
55304;PMS7003;65692;51.378;19.824;2023-01-09T15:39:22;59.50;45.25;30.25
55304;PMS7003;65692;51.378;19.824;2023-01-09T15:41:50;63.00;50.25;34.00
55304;PMS7003;65692;51.378;19.824;2023-01-09T15:44:36;57.50;44.75;31.50
55304;PMS7003;65692;51.378;19.824;2023-01-09T15:47:03;72.75;55.50;36.00
55304;PMS7003;65692;51.378;19.824;2023-01-09T15:49:32;70.75;54.00;34.25
55304;PMS7003;65692;51.378;19.824;2023-01-09T15:51:59;76.00;53.75;35.75
55304;PMS7003;65692;51.378;19.824;2023-01-09T15:54:30;81.50;58.25;38.25
55304;PMS7003;65692;51.378;19.824;2023-01-09T15:59:41;80.00;60.25;41.00
55304;PMS7003;65692;51.378;19.824;2023-01-09T16:02:08;93.25;70.50;44.50
55304;PMS7003;65692;51.378;19.824;2023-01-09T16:04:56;101.50;82.50;46.50
55304;PMS7003;65692;51.378;19.824;2023-01-09T16:07:23;100.25;84.75;54.50
55304;PMS7003;65692;51.378;19.824;2023-01-09T16:09:49;70.75;56.25;37.75
55304;PMS7003;65692;51.378;19.824;2023-01-09T16:12:20;53.00;45.00;29.00
55304;PMS7003;65692;51.378;19.824;2023-01-09T16:14:48;57.25;45.00;30.50
55304;PMS7003;65692;51.378;19.824;2023-01-09T16:17:16;56.33;42.67;29.33